sensor_id;sensor_type;location;lat;lon;timestamp;P1;durP1;ratioP1;P2;durP2;ratioP2
58302;SDS011;44109;52.398;7.024;2023-06-04T00:01:32;47.22;;;45.60;;
58302;SDS011;44109;52.398;7.024;2023-06-04T00:03:59;47.38;;;45.78;;
58302;SDS011;44109;52.398;7.024;2023-06-04T00:06:27;47.15;;;45.55;;
58302;SDS011;44109;52.398;7.024;2023-06-04T00:09:08;47.17;;;45.58;;
58302;SDS011;44109;52.398;7.024;2023-06-04T00:11:36;47.80;;;46.13;;
58302;SDS011;44109;52.398;7.024;2023-06-04T00:14:05;44.08;;;42.50;;
58302;SDS011;44109;52.398;7.024;2023-06-04T00:16:33;47.08;;;45.28;;
58302;SDS011;44109;52.398;7.024;2023-06-04T00:19:01;50.13;;;48.33;;
58302;SDS011;44109;52.398;7.024;2023-06-04T00:21:28;52.03;;;50.22;;
58302;SDS011;44109;52.398;7.024;2023-06-04T00:23:56;46.72;;;45.13;;
58302;SDS011;44109;52.398;7.024;2023-06-04T00:26:24;49.50;;;47.80;;
58302;SDS011;44109;52.398;7.024;2023-06-04T00:28:51;48.88;;;47.17;;
58302;SDS011;44109;52.398;7.024;2023-06-04T00:31:22;42.20;;;40.80;;
58302;SDS011;44109;52.398;7.024;2023-06-04T00:33:49;44.47;;;42.88;;
58302;SDS011;44109;52.398;7.024;2023-06-04T00:36:17;47.25;;;45.65;;
58302;SDS011;44109;52.398;7.024;2023-06-04T00:38:44;40.70;;;39.20;;
58302;SDS011;44109;52.398;7.024;2023-06-04T00:41:12;40.88;;;39.42;;
58302;SDS011;44109;52.398;7.024;2023-06-04T00:43:40;36.30;;;35.05;;
58302;SDS011;44109;52.398;7.024;2023-06-04T00:46:11;36.72;;;35.45;;
58302;SDS011;44109;52.398;7.024;2023-06-04T00:48:45;32.97;;;31.77;;
58302;SDS011;44109;52.398;7.024;2023-06-04T00:51:12;33.33;;;32.15;;
58302;SDS011;44109;52.398;7.024;2023-06-04T00:53:40;34.92;;;33.67;;
58302;SDS011;44109;52.398;7.024;2023-06-04T00:56:07;37.28;;;35.97;;
58302;SDS011;44109;52.398;7.024;2023-06-04T00:58:37;34.28;;;33.08;;
58302;SDS011;44109;52.398;7.024;2023-06-04T01:01:07;39.40;;;38.08;;
58302;SDS011;44109;52.398;7.024;2023-06-04T01:03:42;37.47;;;36.15;;
58302;SDS011;44109;52.398;7.024;2023-06-04T01:06:16;35.38;;;33.97;;
58302;SDS011;44109;52.398;7.024;2023-06-04T01:08:55;29.17;;;28.13;;
58302;SDS011;44109;52.398;7.024;2023-06-04T01:11:32;31.27;;;30.08;;
58302;SDS011;44109;52.398;7.024;2023-06-04T01:14:01;32.97;;;31.83;;
58302;SDS011;44109;52.398;7.024;2023-06-04T01:16:35;31.13;;;30.02;;
58302;SDS011;44109;52.398;7.024;2023-06-04T01:19:17;31.27;;;30.15;;
58302;SDS011;44109;52.398;7.024;2023-06-04T01:22:33;32.38;;;30.88;;
58302;SDS011;44109;52.398;7.024;2023-06-04T01:25:09;35.03;;;33.83;;
58302;SDS011;44109;52.398;7.024;2023-06-04T01:27:46;32.83;;;31.55;;
58302;SDS011;44109;52.398;7.024;2023-06-04T01:30:18;34.35;;;33.08;;
58302;SDS011;44109;52.398;7.024;2023-06-04T01:32:50;36.78;;;35.28;;
58302;SDS011;44109;52.398;7.024;2023-06-04T01:35:20;36.35;;;35.05;;
58302;SDS011;44109;52.398;7.024;2023-06-04T01:37:49;38.45;;;37.15;;
58302;SDS011;44109;52.398;7.024;2023-06-04T01:40:17;39.47;;;37.78;;
58302;SDS011;44109;52.398;7.024;2023-06-04T01:42:45;37.92;;;36.55;;
58302;SDS011;44109;52.398;7.024;2023-06-04T01:45:13;36.20;;;34.90;;
58302;SDS011;44109;52.398;7.024;2023-06-04T01:47:41;36.20;;;34.90;;
58302;SDS011;44109;52.398;7.024;2023-06-04T01:50:09;33.35;;;32.15;;
58302;SDS011;44109;52.398;7.024;2023-06-04T01:52:38;29.65;;;28.65;;
58302;SDS011;44109;52.398;7.024;2023-06-04T01:55:08;23.17;;;22.17;;
58302;SDS011;44109;52.398;7.024;2023-06-04T01:57:39;26.48;;;25.52;;
58302;SDS011;44109;52.398;7.024;2023-06-04T02:00:08;34.22;;;32.95;;
58302;SDS011;44109;52.398;7.024;2023-06-04T02:02:38;38.40;;;36.97;;
58302;SDS011;44109;52.398;7.024;2023-06-04T02:05:08;39.58;;;38.17;;
58302;SDS011;44109;52.398;7.024;2023-06-04T02:07:39;45.70;;;44.10;;
58302;SDS011;44109;52.398;7.024;2023-06-04T02:10:10;45.55;;;43.92;;
58302;SDS011;44109;52.398;7.024;2023-06-04T02:12:40;29.95;;;28.85;;
58302;SDS011;44109;52.398;7.024;2023-06-04T02:15:21;26.90;;;26.00;;
58302;SDS011;44109;52.398;7.024;2023-06-04T02:17:50;19.52;;;18.73;;
58302;SDS011;44109;52.398;7.024;2023-06-04T02:20:18;12.30;;;11.80;;
58302;SDS011;44109;52.398;7.024;2023-06-04T02:22:47;18.38;;;17.60;;
58302;SDS011;44109;52.398;7.024;2023-06-04T02:25:14;15.98;;;15.38;;
58302;SDS011;44109;52.398;7.024;2023-06-04T02:27:42;17.08;;;16.38;;
58302;SDS011;44109;52.398;7.024;2023-06-04T02:30:10;13.82;;;13.20;;
58302;SDS011;44109;52.398;7.024;2023-06-04T02:32:37;15.80;;;15.13;;
58302;SDS011;44109;52.398;7.024;2023-06-04T02:35:05;16.92;;;16.10;;
58302;SDS011;44109;52.398;7.024;2023-06-04T02:37:33;5.88;;;5.68;;
58302;SDS011;44109;52.398;7.024;2023-06-04T02:40:02;14.60;;;13.68;;
58302;SDS011;44109;52.398;7.024;2023-06-04T02:42:30;14.80;;;14.15;;
58302;SDS011;44109;52.398;7.024;2023-06-04T02:44:58;14.48;;;13.77;;
58302;SDS011;44109;52.398;7.024;2023-06-04T02:47:26;15.63;;;14.82;;
58302;SDS011;44109;52.398;7.024;2023-06-04T02:49:54;15.30;;;14.70;;
58302;SDS011;44109;52.398;7.024;2023-06-04T02:52:21;7.85;;;7.43;;
58302;SDS011;44109;52.398;7.024;2023-06-04T02:54:51;13.15;;;12.55;;
58302;SDS011;44109;52.398;7.024;2023-06-04T02:57:20;4.97;;;4.55;;
58302;SDS011;44109;52.398;7.024;2023-06-04T02:59:47;4.05;;;3.85;;
58302;SDS011;44109;52.398;7.024;2023-06-04T03:02:15;7.43;;;7.03;;
58302;SDS011;44109;52.398;7.024;2023-06-04T03:04:42;4.65;;;4.35;;
58302;SDS011;44109;52.398;7.024;2023-06-04T03:07:10;6.75;;;6.40;;
58302;SDS011;44109;52.398;7.024;2023-06-04T03:09:39;6.72;;;6.07;;
58302;SDS011;44109;52.398;7.024;2023-06-04T03:12:07;4.35;;;3.95;;
58302;SDS011;44109;52.398;7.024;2023-06-04T03:14:36;2.97;;;1.77;;
58302;SDS011;44109;52.398;7.024;2023-06-04T03:17:04;3.10;;;2.85;;
58302;SDS011;44109;52.398;7.024;2023-06-04T03:19:36;2.72;;;2.53;;
58302;SDS011;44109;52.398;7.024;2023-06-04T03:22:06;2.30;;;2.10;;
58302;SDS011;44109;52.398;7.024;2023-06-04T03:24:36;2.47;;;2.10;;
58302;SDS011;44109;52.398;7.024;2023-06-04T03:27:07;4.15;;;2.58;;
58302;SDS011;44109;52.398;7.024;2023-06-04T03:29:37;3.72;;;1.98;;
58302;SDS011;44109;52.398;7.024;2023-06-04T03:32:06;2.97;;;2.65;;
58302;SDS011;44109;52.398;7.024;2023-06-04T03:34:34;5.63;;;4.72;;
58302;SDS011;44109;52.398;7.024;2023-06-04T03:37:02;1.30;;;1.17;;
58302;SDS011;44109;52.398;7.024;2023-06-04T03:39:31;2.65;;;0.90;;
58302;SDS011;44109;52.398;7.024;2023-06-04T03:41:58;1.30;;;0.88;;
58302;SDS011;44109;52.398;7.024;2023-06-04T03:44:26;3.35;;;1.48;;
58302;SDS011;44109;52.398;7.024;2023-06-04T03:46:55;1.77;;;1.40;;
58302;SDS011;44109;52.398;7.024;2023-06-04T03:49:23;2.08;;;1.52;;
58302;SDS011;44109;52.398;7.024;2023-06-04T03:51:50;2.42;;;2.30;;
58302;SDS011;44109;52.398;7.024;2023-06-04T03:54:18;1.80;;;1.20;;
58302;SDS011;44109;52.398;7.024;2023-06-04T03:56:46;2.33;;;1.45;;
58302;SDS011;44109;52.398;7.024;2023-06-04T03:59:14;3.33;;;1.63;;
58302;SDS011;44109;52.398;7.024;2023-06-04T04:01:41;2.20;;;1.33;;
58302;SDS011;44109;52.398;7.024;2023-06-04T04:04:10;2.67;;;1.50;;
58302;SDS011;44109;52.398;7.024;2023-06-04T04:06:38;9.43;;;1.52;;
58302;SDS011;44109;52.398;7.024;2023-06-04T04:09:05;2.70;;;2.50;;
58302;SDS011;44109;52.398;7.024;2023-06-04T04:11:33;2.65;;;1.70;;
58302;SDS011;44109;52.398;7.024;2023-06-04T04:14:01;3.05;;;1.60;;
58302;SDS011;44109;52.398;7.024;2023-06-04T04:16:28;1.98;;;1.40;;
58302;SDS011;44109;52.398;7.024;2023-06-04T04:18:56;3.33;;;1.48;;
58302;SDS011;44109;52.398;7.024;2023-06-04T04:21:25;3.28;;;2.38;;
58302;SDS011;44109;52.398;7.024;2023-06-04T04:23:52;4.35;;;1.95;;
58302;SDS011;44109;52.398;7.024;2023-06-04T04:26:21;1.55;;;1.30;;
58302;SDS011;44109;52.398;7.024;2023-06-04T04:28:53;2.58;;;2.25;;
58302;SDS011;44109;52.398;7.024;2023-06-04T04:31:23;2.45;;;1.38;;
58302;SDS011;44109;52.398;7.024;2023-06-04T04:33:51;2.85;;;2.00;;
58302;SDS011;44109;52.398;7.024;2023-06-04T04:36:19;11.95;;;11.30;;
58302;SDS011;44109;52.398;7.024;2023-06-04T04:38:48;2.55;;;1.45;;
58302;SDS011;44109;52.398;7.024;2023-06-04T04:41:20;1.65;;;1.55;;
58302;SDS011;44109;52.398;7.024;2023-06-04T04:43:48;4.07;;;1.67;;
58302;SDS011;44109;52.398;7.024;2023-06-04T04:46:16;4.32;;;2.58;;
58302;SDS011;44109;52.398;7.024;2023-06-04T04:48:43;4.22;;;1.75;;
58302;SDS011;44109;52.398;7.024;2023-06-04T04:51:11;4.10;;;2.90;;
58302;SDS011;44109;52.398;7.024;2023-06-04T04:53:38;9.48;;;8.98;;
58302;SDS011;44109;52.398;7.024;2023-06-04T04:56:07;14.60;;;13.90;;
58302;SDS011;44109;52.398;7.024;2023-06-04T04:58:35;27.38;;;26.17;;
58302;SDS011;44109;52.398;7.024;2023-06-04T05:01:02;40.28;;;38.67;;
58302;SDS011;44109;52.398;7.024;2023-06-04T05:03:30;42.42;;;40.85;;
58302;SDS011;44109;52.398;7.024;2023-06-04T05:05:57;40.10;;;38.45;;
58302;SDS011;44109;52.398;7.024;2023-06-04T05:08:25;44.50;;;42.85;;
58302;SDS011;44109;52.398;7.024;2023-06-04T05:10:53;35.63;;;34.33;;
58302;SDS011;44109;52.398;7.024;2023-06-04T05:13:21;34.25;;;33.05;;
58302;SDS011;44109;52.398;7.024;2023-06-04T05:15:49;28.52;;;27.52;;
58302;SDS011;44109;52.398;7.024;2023-06-04T05:18:18;34.78;;;33.55;;
58302;SDS011;44109;52.398;7.024;2023-06-04T05:20:47;33.78;;;32.58;;
58302;SDS011;44109;52.398;7.024;2023-06-04T05:23:15;30.83;;;29.63;;
58302;SDS011;44109;52.398;7.024;2023-06-04T05:25:42;28.38;;;27.38;;
58302;SDS011;44109;52.398;7.024;2023-06-04T05:28:10;19.08;;;18.35;;
58302;SDS011;44109;52.398;7.024;2023-06-04T05:30:40;26.85;;;25.65;;
58302;SDS011;44109;52.398;7.024;2023-06-04T05:33:07;30.73;;;29.63;;
58302;SDS011;44109;52.398;7.024;2023-06-04T05:35:43;24.08;;;23.08;;
58302;SDS011;44109;52.398;7.024;2023-06-04T05:38:11;25.67;;;24.67;;
58302;SDS011;44109;52.398;7.024;2023-06-04T05:40:41;25.58;;;24.50;;
58302;SDS011;44109;52.398;7.024;2023-06-04T05:43:09;27.38;;;26.27;;
58302;SDS011;44109;52.398;7.024;2023-06-04T05:45:36;27.98;;;26.88;;
58302;SDS011;44109;52.398;7.024;2023-06-04T05:48:05;22.88;;;22.08;;
58302;SDS011;44109;52.398;7.024;2023-06-04T05:50:33;26.15;;;25.15;;
58302;SDS011;44109;52.398;7.024;2023-06-04T05:53:01;27.95;;;26.42;;
58302;SDS011;44109;52.398;7.024;2023-06-04T05:55:28;27.30;;;26.30;;
58302;SDS011;44109;52.398;7.024;2023-06-04T05:57:56;23.95;;;23.02;;
58302;SDS011;44109;52.398;7.024;2023-06-04T06:00:23;22.90;;;21.98;;
58302;SDS011;44109;52.398;7.024;2023-06-04T06:02:51;20.40;;;19.67;;
58302;SDS011;44109;52.398;7.024;2023-06-04T06:05:21;21.38;;;20.38;;
58302;SDS011;44109;52.398;7.024;2023-06-04T06:07:48;20.77;;;20.00;;
58302;SDS011;44109;52.398;7.024;2023-06-04T06:10:16;20.17;;;19.10;;
58302;SDS011;44109;52.398;7.024;2023-06-04T06:12:43;21.25;;;20.05;;
58302;SDS011;44109;52.398;7.024;2023-06-04T06:15:11;18.88;;;18.08;;
58302;SDS011;44109;52.398;7.024;2023-06-04T06:17:39;20.52;;;19.50;;
58302;SDS011;44109;52.398;7.024;2023-06-04T06:20:06;21.00;;;20.08;;
58302;SDS011;44109;52.398;7.024;2023-06-04T06:22:36;21.98;;;21.08;;
58302;SDS011;44109;52.398;7.024;2023-06-04T06:25:04;19.98;;;19.08;;
58302;SDS011;44109;52.398;7.024;2023-06-04T06:27:33;21.23;;;20.33;;
58302;SDS011;44109;52.398;7.024;2023-06-04T06:30:00;37.65;;;35.65;;
58302;SDS011;44109;52.398;7.024;2023-06-04T06:32:29;20.35;;;19.55;;
58302;SDS011;44109;52.398;7.024;2023-06-04T06:34:57;21.63;;;20.73;;
58302;SDS011;44109;52.398;7.024;2023-06-04T06:37:24;21.58;;;20.67;;
58302;SDS011;44109;52.398;7.024;2023-06-04T06:39:53;25.30;;;24.20;;
58302;SDS011;44109;52.398;7.024;2023-06-04T06:42:21;24.10;;;22.85;;
58302;SDS011;44109;52.398;7.024;2023-06-04T06:44:48;25.25;;;24.35;;
58302;SDS011;44109;52.398;7.024;2023-06-04T06:47:16;26.15;;;25.15;;
58302;SDS011;44109;52.398;7.024;2023-06-04T06:49:44;22.88;;;21.95;;
58302;SDS011;44109;52.398;7.024;2023-06-04T06:52:11;22.65;;;21.70;;
58302;SDS011;44109;52.398;7.024;2023-06-04T06:54:39;24.25;;;23.33;;
58302;SDS011;44109;52.398;7.024;2023-06-04T06:57:08;21.50;;;20.70;;
58302;SDS011;44109;52.398;7.024;2023-06-04T06:59:35;22.20;;;21.30;;
58302;SDS011;44109;52.398;7.024;2023-06-04T07:02:03;21.23;;;20.38;;
58302;SDS011;44109;52.398;7.024;2023-06-04T07:04:31;23.38;;;22.55;;
58302;SDS011;44109;52.398;7.024;2023-06-04T07:06:59;23.55;;;22.65;;
58302;SDS011;44109;52.398;7.024;2023-06-04T07:09:27;26.48;;;25.50;;
58302;SDS011;44109;52.398;7.024;2023-06-04T07:11:54;23.38;;;22.42;;
58302;SDS011;44109;52.398;7.024;2023-06-04T07:14:23;28.35;;;27.02;;
58302;SDS011;44109;52.398;7.024;2023-06-04T07:16:51;22.88;;;22.05;;
58302;SDS011;44109;52.398;7.024;2023-06-04T07:19:18;29.33;;;28.23;;
58302;SDS011;44109;52.398;7.024;2023-06-04T07:21:46;24.60;;;23.70;;
58302;SDS011;44109;52.398;7.024;2023-06-04T07:24:13;20.50;;;19.80;;
58302;SDS011;44109;52.398;7.024;2023-06-04T07:26:41;21.40;;;20.30;;
58302;SDS011;44109;52.398;7.024;2023-06-04T07:29:09;17.98;;;17.17;;
58302;SDS011;44109;52.398;7.024;2023-06-04T07:31:38;22.23;;;21.42;;
58302;SDS011;44109;52.398;7.024;2023-06-04T07:34:06;16.85;;;16.15;;
58302;SDS011;44109;52.398;7.024;2023-06-04T07:36:33;18.08;;;17.30;;
58302;SDS011;44109;52.398;7.024;2023-06-04T07:39:02;17.50;;;16.70;;
58302;SDS011;44109;52.398;7.024;2023-06-04T07:41:30;17.77;;;17.10;;
58302;SDS011;44109;52.398;7.024;2023-06-04T07:43:58;22.73;;;21.92;;
58302;SDS011;44109;52.398;7.024;2023-06-04T07:46:25;18.05;;;17.25;;
58302;SDS011;44109;52.398;7.024;2023-06-04T07:48:54;23.17;;;22.38;;
58302;SDS011;44109;52.398;7.024;2023-06-04T07:51:22;18.38;;;17.67;;
58302;SDS011;44109;52.398;7.024;2023-06-04T07:53:49;16.08;;;15.48;;
58302;SDS011;44109;52.398;7.024;2023-06-04T07:56:17;22.42;;;21.52;;
58302;SDS011;44109;52.398;7.024;2023-06-04T07:58:44;16.67;;;16.08;;
58302;SDS011;44109;52.398;7.024;2023-06-04T08:01:12;16.58;;;15.73;;
58302;SDS011;44109;52.398;7.024;2023-06-04T08:03:40;16.23;;;15.63;;
58302;SDS011;44109;52.398;7.024;2023-06-04T08:06:09;17.42;;;16.83;;
58302;SDS011;44109;52.398;7.024;2023-06-04T08:08:37;12.38;;;11.88;;
58302;SDS011;44109;52.398;7.024;2023-06-04T08:11:04;14.10;;;13.50;;
58302;SDS011;44109;52.398;7.024;2023-06-04T08:13:32;11.40;;;10.90;;
58302;SDS011;44109;52.398;7.024;2023-06-04T08:15:59;11.10;;;10.40;;
58302;SDS011;44109;52.398;7.024;2023-06-04T08:18:27;9.70;;;9.30;;
58302;SDS011;44109;52.398;7.024;2023-06-04T08:20:54;12.40;;;11.93;;
58302;SDS011;44109;52.398;7.024;2023-06-04T08:23:23;9.95;;;9.55;;
58302;SDS011;44109;52.398;7.024;2023-06-04T08:25:51;9.40;;;9.00;;
58302;SDS011;44109;52.398;7.024;2023-06-04T08:28:18;10.02;;;9.60;;
58302;SDS011;44109;52.398;7.024;2023-06-04T08:30:46;8.35;;;7.93;;
58302;SDS011;44109;52.398;7.024;2023-06-04T08:33:14;6.80;;;6.50;;
58302;SDS011;44109;52.398;7.024;2023-06-04T08:35:42;5.88;;;5.68;;
58302;SDS011;44109;52.398;7.024;2023-06-04T08:38:09;5.75;;;5.45;;
58302;SDS011;44109;52.398;7.024;2023-06-04T08:40:38;5.32;;;5.10;;
58302;SDS011;44109;52.398;7.024;2023-06-04T08:43:06;4.43;;;4.03;;
58302;SDS011;44109;52.398;7.024;2023-06-04T08:45:37;3.65;;;3.45;;
58302;SDS011;44109;52.398;7.024;2023-06-04T08:48:07;3.70;;;3.45;;
58302;SDS011;44109;52.398;7.024;2023-06-04T08:50:37;5.05;;;4.65;;
58302;SDS011;44109;52.398;7.024;2023-06-04T08:53:13;4.38;;;2.85;;
58302;SDS011;44109;52.398;7.024;2023-06-04T08:55:44;2.38;;;2.28;;
58302;SDS011;44109;52.398;7.024;2023-06-04T08:58:13;2.85;;;2.72;;
58302;SDS011;44109;52.398;7.024;2023-06-04T09:00:42;2.70;;;2.50;;
58302;SDS011;44109;52.398;7.024;2023-06-04T09:03:09;1.52;;;1.45;;
58302;SDS011;44109;52.398;7.024;2023-06-04T09:05:39;2.28;;;2.08;;
58302;SDS011;44109;52.398;7.024;2023-06-04T09:08:13;4.20;;;2.65;;
58302;SDS011;44109;52.398;7.024;2023-06-04T09:10:45;2.17;;;1.50;;
58302;SDS011;44109;52.398;7.024;2023-06-04T09:13:18;2.72;;;2.35;;
58302;SDS011;44109;52.398;7.024;2023-06-04T09:15:58;2.22;;;1.73;;
58302;SDS011;44109;52.398;7.024;2023-06-04T09:18:26;1.92;;;1.65;;
58302;SDS011;44109;52.398;7.024;2023-06-04T09:21:03;2.30;;;1.00;;
58302;SDS011;44109;52.398;7.024;2023-06-04T09:23:34;1.55;;;1.10;;
58302;SDS011;44109;52.398;7.024;2023-06-04T09:26:09;1.58;;;1.23;;
58302;SDS011;44109;52.398;7.024;2023-06-04T09:28:39;2.53;;;2.20;;
58302;SDS011;44109;52.398;7.024;2023-06-04T09:31:08;1.30;;;1.30;;
58302;SDS011;44109;52.398;7.024;2023-06-04T09:33:43;1.88;;;1.77;;
58302;SDS011;44109;52.398;7.024;2023-06-04T09:36:11;1.40;;;1.30;;
58302;SDS011;44109;52.398;7.024;2023-06-04T09:38:39;1.63;;;1.48;;
58302;SDS011;44109;52.398;7.024;2023-06-04T09:41:12;2.53;;;2.20;;
58302;SDS011;44109;52.398;7.024;2023-06-04T09:43:40;1.13;;;1.02;;
58302;SDS011;44109;52.398;7.024;2023-06-04T09:46:10;1.83;;;1.60;;
58302;SDS011;44109;52.398;7.024;2023-06-04T09:48:38;2.70;;;1.20;;
58302;SDS011;44109;52.398;7.024;2023-06-04T09:51:07;1.05;;;1.00;;
58302;SDS011;44109;52.398;7.024;2023-06-04T09:53:36;0.75;;;0.75;;
58302;SDS011;44109;52.398;7.024;2023-06-04T09:56:05;1.15;;;1.05;;
58302;SDS011;44109;52.398;7.024;2023-06-04T09:58:38;2.45;;;0.70;;
58302;SDS011;44109;52.398;7.024;2023-06-04T10:01:08;1.85;;;1.27;;
58302;SDS011;44109;52.398;7.024;2023-06-04T10:03:37;2.17;;;1.80;;
58302;SDS011;44109;52.398;7.024;2023-06-04T10:06:14;1.92;;;1.83;;
58302;SDS011;44109;52.398;7.024;2023-06-04T10:08:42;1.67;;;1.55;;
58302;SDS011;44109;52.398;7.024;2023-06-04T10:11:12;1.50;;;1.30;;
58302;SDS011;44109;52.398;7.024;2023-06-04T10:13:45;1.42;;;0.90;;
58302;SDS011;44109;52.398;7.024;2023-06-04T10:16:20;2.10;;;1.30;;
58302;SDS011;44109;52.398;7.024;2023-06-04T10:18:51;1.15;;;0.80;;
58302;SDS011;44109;52.398;7.024;2023-06-04T10:21:21;0.60;;;0.52;;
58302;SDS011;44109;52.398;7.024;2023-06-04T10:23:50;1.98;;;1.50;;
58302;SDS011;44109;52.398;7.024;2023-06-04T10:26:18;1.23;;;1.13;;
58302;SDS011;44109;52.398;7.024;2023-06-04T10:28:47;0.85;;;0.68;;
58302;SDS011;44109;52.398;7.024;2023-06-04T10:31:16;0.40;;;0.40;;
58302;SDS011;44109;52.398;7.024;2023-06-04T10:33:44;1.27;;;1.17;;
58302;SDS011;44109;52.398;7.024;2023-06-04T10:36:16;1.02;;;0.90;;
58302;SDS011;44109;52.398;7.024;2023-06-04T10:41:14;0.95;;;0.90;;
58302;SDS011;44109;52.398;7.024;2023-06-04T10:43:43;0.75;;;0.70;;
58302;SDS011;44109;52.398;7.024;2023-06-04T10:46:13;1.02;;;1.02;;
58302;SDS011;44109;52.398;7.024;2023-06-04T10:48:45;1.70;;;1.60;;
58302;SDS011;44109;52.398;7.024;2023-06-04T10:51:28;1.88;;;1.77;;
58302;SDS011;44109;52.398;7.024;2023-06-04T10:53:57;1.85;;;1.55;;
58302;SDS011;44109;52.398;7.024;2023-06-04T10:56:26;2.10;;;1.40;;
58302;SDS011;44109;52.398;7.024;2023-06-04T10:58:54;0.68;;;0.60;;
58302;SDS011;44109;52.398;7.024;2023-06-04T11:01:24;2.05;;;0.60;;
58302;SDS011;44109;52.398;7.024;2023-06-04T11:03:52;1.80;;;0.90;;
58302;SDS011;44109;52.398;7.024;2023-06-04T11:06:20;1.02;;;1.02;;
58302;SDS011;44109;52.398;7.024;2023-06-04T11:09:00;1.75;;;0.85;;
58302;SDS011;44109;52.398;7.024;2023-06-04T11:11:30;1.83;;;0.95;;
58302;SDS011;44109;52.398;7.024;2023-06-04T11:14:06;1.40;;;1.08;;
58302;SDS011;44109;52.398;7.024;2023-06-04T11:16:36;3.03;;;0.93;;
58302;SDS011;44109;52.398;7.024;2023-06-04T11:19:04;1.15;;;0.80;;
58302;SDS011;44109;52.398;7.024;2023-06-04T11:21:33;1.23;;;1.10;;
58302;SDS011;44109;52.398;7.024;2023-06-04T11:24:04;1.80;;;1.75;;
58302;SDS011;44109;52.398;7.024;2023-06-04T11:26:32;0.80;;;0.80;;
58302;SDS011;44109;52.398;7.024;2023-06-04T11:29:02;0.70;;;0.70;;
58302;SDS011;44109;52.398;7.024;2023-06-04T11:31:41;1.65;;;1.35;;
58302;SDS011;44109;52.398;7.024;2023-06-04T11:34:10;1.10;;;1.00;;
58302;SDS011;44109;52.398;7.024;2023-06-04T11:36:49;0.95;;;0.70;;
58302;SDS011;44109;52.398;7.024;2023-06-04T11:39:18;1.58;;;1.48;;
58302;SDS011;44109;52.398;7.024;2023-06-04T11:41:46;0.32;;;0.32;;
58302;SDS011;44109;52.398;7.024;2023-06-04T11:44:17;2.20;;;1.95;;
58302;SDS011;44109;52.398;7.024;2023-06-04T11:46:48;1.13;;;1.05;;
58302;SDS011;44109;52.398;7.024;2023-06-04T11:49:18;2.00;;;1.58;;
58302;SDS011;44109;52.398;7.024;2023-06-04T11:51:47;1.13;;;0.90;;
58302;SDS011;44109;52.398;7.024;2023-06-04T11:54:16;1.52;;;0.88;;
58302;SDS011;44109;52.398;7.024;2023-06-04T11:56:45;0.65;;;0.65;;
58302;SDS011;44109;52.398;7.024;2023-06-04T11:59:17;0.55;;;0.50;;
58302;SDS011;44109;52.398;7.024;2023-06-04T12:01:47;1.58;;;0.95;;
58302;SDS011;44109;52.398;7.024;2023-06-04T12:04:17;2.10;;;1.75;;
58302;SDS011;44109;52.398;7.024;2023-06-04T12:06:53;1.52;;;1.35;;
58302;SDS011;44109;52.398;7.024;2023-06-04T12:09:23;1.92;;;1.63;;
58302;SDS011;44109;52.398;7.024;2023-06-04T12:11:57;1.30;;;1.20;;
58302;SDS011;44109;52.398;7.024;2023-06-04T12:14:25;2.35;;;2.15;;
58302;SDS011;44109;52.398;7.024;2023-06-04T12:16:55;0.80;;;0.45;;
58302;SDS011;44109;52.398;7.024;2023-06-04T12:19:24;1.10;;;1.08;;
58302;SDS011;44109;52.398;7.024;2023-06-04T12:21:59;1.60;;;0.93;;
58302;SDS011;44109;52.398;7.024;2023-06-04T12:24:28;1.42;;;1.33;;
58302;SDS011;44109;52.398;7.024;2023-06-04T12:27:02;2.20;;;1.55;;
58302;SDS011;44109;52.398;7.024;2023-06-04T12:29:32;3.17;;;2.95;;
58302;SDS011;44109;52.398;7.024;2023-06-04T12:32:05;0.50;;;0.50;;
58302;SDS011;44109;52.398;7.024;2023-06-04T12:34:34;1.25;;;0.60;;
58302;SDS011;44109;52.398;7.024;2023-06-04T12:37:02;1.90;;;1.80;;
58302;SDS011;44109;52.398;7.024;2023-06-04T12:39:31;0.98;;;0.85;;
58302;SDS011;44109;52.398;7.024;2023-06-04T12:41:59;3.88;;;3.35;;
58302;SDS011;44109;52.398;7.024;2023-06-04T12:44:27;2.22;;;2.13;;
58302;SDS011;44109;52.398;7.024;2023-06-04T12:46:54;1.30;;;1.23;;
58302;SDS011;44109;52.398;7.024;2023-06-04T12:49:23;4.40;;;0.80;;
58302;SDS011;44109;52.398;7.024;2023-06-04T12:51:51;1.92;;;0.85;;
58302;SDS011;44109;52.398;7.024;2023-06-04T12:54:18;1.08;;;0.75;;
58302;SDS011;44109;52.398;7.024;2023-06-04T12:56:46;1.48;;;1.38;;
58302;SDS011;44109;52.398;7.024;2023-06-04T12:59:14;0.95;;;0.70;;
58302;SDS011;44109;52.398;7.024;2023-06-04T13:01:42;2.03;;;0.80;;
58302;SDS011;44109;52.398;7.024;2023-06-04T13:04:10;1.10;;;0.85;;
58302;SDS011;44109;52.398;7.024;2023-06-04T13:06:39;1.20;;;1.10;;
58302;SDS011;44109;52.398;7.024;2023-06-04T13:09:07;0.85;;;0.82;;
58302;SDS011;44109;52.398;7.024;2023-06-04T13:11:37;1.02;;;1.02;;
58302;SDS011;44109;52.398;7.024;2023-06-04T13:14:05;0.70;;;0.70;;
58302;SDS011;44109;52.398;7.024;2023-06-04T13:16:34;1.23;;;1.10;;
58302;SDS011;44109;52.398;7.024;2023-06-04T13:19:02;1.58;;;1.40;;
58302;SDS011;44109;52.398;7.024;2023-06-04T13:21:29;1.00;;;1.00;;
58302;SDS011;44109;52.398;7.024;2023-06-04T13:23:58;1.17;;;1.10;;
58302;SDS011;44109;52.398;7.024;2023-06-04T13:26:26;1.48;;;1.38;;
58302;SDS011;44109;52.398;7.024;2023-06-04T13:28:54;1.80;;;1.35;;
58302;SDS011;44109;52.398;7.024;2023-06-04T13:31:21;2.03;;;1.70;;
58302;SDS011;44109;52.398;7.024;2023-06-04T13:33:49;0.75;;;0.75;;
58302;SDS011;44109;52.398;7.024;2023-06-04T13:36:16;2.65;;;2.55;;
58302;SDS011;44109;52.398;7.024;2023-06-04T13:38:44;1.73;;;1.63;;
58302;SDS011;44109;52.398;7.024;2023-06-04T13:41:14;1.40;;;1.00;;
58302;SDS011;44109;52.398;7.024;2023-06-04T13:43:41;1.65;;;1.10;;
58302;SDS011;44109;52.398;7.024;2023-06-04T13:46:09;2.17;;;2.08;;
58302;SDS011;44109;52.398;7.024;2023-06-04T13:48:37;1.77;;;1.30;;
58302;SDS011;44109;52.398;7.024;2023-06-04T13:51:04;1.48;;;1.30;;
58302;SDS011;44109;52.398;7.024;2023-06-04T13:53:32;1.95;;;1.85;;
58302;SDS011;44109;52.398;7.024;2023-06-04T13:55:59;1.80;;;1.70;;
58302;SDS011;44109;52.398;7.024;2023-06-04T13:58:28;1.75;;;1.65;;
58302;SDS011;44109;52.398;7.024;2023-06-04T14:00:56;2.78;;;1.85;;
58302;SDS011;44109;52.398;7.024;2023-06-04T14:03:23;2.10;;;2.00;;
58302;SDS011;44109;52.398;7.024;2023-06-04T14:05:51;1.88;;;1.75;;
58302;SDS011;44109;52.398;7.024;2023-06-04T14:08:18;1.80;;;1.67;;
58302;SDS011;44109;52.398;7.024;2023-06-04T14:10:46;3.60;;;3.40;;
58302;SDS011;44109;52.398;7.024;2023-06-04T14:13:13;1.80;;;1.70;;
58302;SDS011;44109;52.398;7.024;2023-06-04T14:15:42;4.00;;;2.70;;
58302;SDS011;44109;52.398;7.024;2023-06-04T14:18:10;2.47;;;2.30;;
58302;SDS011;44109;52.398;7.024;2023-06-04T14:20:37;2.90;;;2.70;;
58302;SDS011;44109;52.398;7.024;2023-06-04T14:23:05;3.10;;;2.80;;
58302;SDS011;44109;52.398;7.024;2023-06-04T14:25:33;5.88;;;3.40;;
58302;SDS011;44109;52.398;7.024;2023-06-04T14:28:02;1.08;;;1.00;;
58302;SDS011;44109;52.398;7.024;2023-06-04T14:30:30;2.25;;;2.10;;
58302;SDS011;44109;52.398;7.024;2023-06-04T14:32:58;1.73;;;1.63;;
58302;SDS011;44109;52.398;7.024;2023-06-04T14:35:26;1.65;;;1.55;;
58302;SDS011;44109;52.398;7.024;2023-06-04T14:37:54;5.55;;;4.63;;
58302;SDS011;44109;52.398;7.024;2023-06-04T14:40:21;2.45;;;2.25;;
58302;SDS011;44109;52.398;7.024;2023-06-04T14:42:49;3.90;;;3.70;;
58302;SDS011;44109;52.398;7.024;2023-06-04T14:45:16;4.50;;;4.30;;
58302;SDS011;44109;52.398;7.024;2023-06-04T14:47:44;6.72;;;6.43;;
58302;SDS011;44109;52.398;7.024;2023-06-04T14:50:13;5.75;;;5.38;;